sensor_id;sensor_type;location;lat;lon;timestamp;P1;durP1;ratioP1;P2;durP2;ratioP2
50309;SDS011;36207;51.850;21.698;2024-01-06T00:02:01;21.90;;;12.40;;
50309;SDS011;36207;51.850;21.698;2024-01-06T00:04:27;21.50;;;12.30;;
50309;SDS011;36207;51.850;21.698;2024-01-06T00:06:54;23.30;;;12.40;;
50309;SDS011;36207;51.850;21.698;2024-01-06T00:09:20;24.40;;;13.30;;
50309;SDS011;36207;51.850;21.698;2024-01-06T00:11:46;21.50;;;12.80;;
50309;SDS011;36207;51.850;21.698;2024-01-06T00:14:12;24.30;;;13.60;;
50309;SDS011;36207;51.850;21.698;2024-01-06T00:16:39;26.40;;;13.40;;
50309;SDS011;36207;51.850;21.698;2024-01-06T00:19:05;26.70;;;14.40;;
50309;SDS011;36207;51.850;21.698;2024-01-06T00:21:31;27.50;;;14.90;;
50309;SDS011;36207;51.850;21.698;2024-01-06T00:23:56;28.50;;;15.10;;
50309;SDS011;36207;51.850;21.698;2024-01-06T00:26:23;32.00;;;14.70;;
50309;SDS011;36207;51.850;21.698;2024-01-06T00:28:50;31.80;;;15.00;;
50309;SDS011;36207;51.850;21.698;2024-01-06T00:31:16;36.40;;;15.00;;
50309;SDS011;36207;51.850;21.698;2024-01-06T00:33:42;31.40;;;14.40;;
50309;SDS011;36207;51.850;21.698;2024-01-06T00:36:09;26.30;;;13.40;;
50309;SDS011;36207;51.850;21.698;2024-01-06T00:38:35;21.30;;;12.30;;
50309;SDS011;36207;51.850;21.698;2024-01-06T00:41:01;21.40;;;11.80;;
50309;SDS011;36207;51.850;21.698;2024-01-06T00:43:28;18.60;;;11.30;;
50309;SDS011;36207;51.850;21.698;2024-01-06T00:45:53;21.50;;;11.70;;
50309;SDS011;36207;51.850;21.698;2024-01-06T00:48:20;20.50;;;11.40;;
50309;SDS011;36207;51.850;21.698;2024-01-06T00:50:46;22.40;;;11.60;;
50309;SDS011;36207;51.850;21.698;2024-01-06T00:53:12;19.80;;;10.90;;
50309;SDS011;36207;51.850;21.698;2024-01-06T00:55:38;18.00;;;10.50;;
50309;SDS011;36207;51.850;21.698;2024-01-06T00:58:04;18.60;;;10.50;;
50309;SDS011;36207;51.850;21.698;2024-01-06T01:00:30;20.40;;;10.90;;
50309;SDS011;36207;51.850;21.698;2024-01-06T01:02:56;19.80;;;11.20;;
50309;SDS011;36207;51.850;21.698;2024-01-06T01:05:22;19.40;;;10.90;;
50309;SDS011;36207;51.850;21.698;2024-01-06T01:07:48;18.80;;;10.20;;
50309;SDS011;36207;51.850;21.698;2024-01-06T01:10:14;20.70;;;10.60;;
50309;SDS011;36207;51.850;21.698;2024-01-06T01:12:40;18.20;;;10.50;;
50309;SDS011;36207;51.850;21.698;2024-01-06T01:15:06;17.60;;;10.40;;
50309;SDS011;36207;51.850;21.698;2024-01-06T01:17:33;17.80;;;10.80;;
50309;SDS011;36207;51.850;21.698;2024-01-06T01:19:59;18.70;;;11.20;;
50309;SDS011;36207;51.850;21.698;2024-01-06T01:22:25;20.00;;;11.50;;
50309;SDS011;36207;51.850;21.698;2024-01-06T01:24:51;19.60;;;11.10;;
50309;SDS011;36207;51.850;21.698;2024-01-06T01:27:17;19.50;;;11.90;;
50309;SDS011;36207;51.850;21.698;2024-01-06T01:29:43;21.00;;;11.90;;
50309;SDS011;36207;51.850;21.698;2024-01-06T01:32:09;22.00;;;11.00;;
50309;SDS011;36207;51.850;21.698;2024-01-06T01:34:35;19.30;;;11.90;;
50309;SDS011;36207;51.850;21.698;2024-01-06T01:37:01;20.70;;;12.20;;
50309;SDS011;36207;51.850;21.698;2024-01-06T01:39:27;19.80;;;11.20;;
50309;SDS011;36207;51.850;21.698;2024-01-06T01:41:53;18.80;;;11.60;;
50309;SDS011;36207;51.850;21.698;2024-01-06T01:44:19;19.60;;;11.70;;
50309;SDS011;36207;51.850;21.698;2024-01-06T01:46:45;19.10;;;10.80;;
50309;SDS011;36207;51.850;21.698;2024-01-06T01:49:11;21.00;;;11.50;;
50309;SDS011;36207;51.850;21.698;2024-01-06T01:51:37;20.50;;;11.20;;
50309;SDS011;36207;51.850;21.698;2024-01-06T01:54:05;20.80;;;11.70;;
50309;SDS011;36207;51.850;21.698;2024-01-06T01:56:32;21.40;;;11.30;;
50309;SDS011;36207;51.850;21.698;2024-01-06T01:59:06;20.40;;;11.60;;
50309;SDS011;36207;51.850;21.698;2024-01-06T02:01:36;20.80;;;11.40;;
50309;SDS011;36207;51.850;21.698;2024-01-06T02:04:02;19.40;;;11.40;;
50309;SDS011;36207;51.850;21.698;2024-01-06T02:06:28;19.40;;;11.30;;
50309;SDS011;36207;51.850;21.698;2024-01-06T02:08:55;20.50;;;11.10;;
50309;SDS011;36207;51.850;21.698;2024-01-06T02:11:21;20.80;;;11.50;;
50309;SDS011;36207;51.850;21.698;2024-01-06T02:13:47;21.50;;;11.70;;
50309;SDS011;36207;51.850;21.698;2024-01-06T02:16:13;18.80;;;11.50;;
50309;SDS011;36207;51.850;21.698;2024-01-06T02:18:39;20.40;;;12.00;;
50309;SDS011;36207;51.850;21.698;2024-01-06T02:21:04;19.50;;;11.80;;
50309;SDS011;36207;51.850;21.698;2024-01-06T02:23:34;18.50;;;11.20;;
50309;SDS011;36207;51.850;21.698;2024-01-06T02:26:01;20.30;;;11.30;;
50309;SDS011;36207;51.850;21.698;2024-01-06T02:28:28;19.60;;;11.30;;
50309;SDS011;36207;51.850;21.698;2024-01-06T02:30:54;20.90;;;11.20;;
50309;SDS011;36207;51.850;21.698;2024-01-06T02:33:25;21.40;;;12.10;;
50309;SDS011;36207;51.850;21.698;2024-01-06T02:35:54;21.10;;;12.00;;
50309;SDS011;36207;51.850;21.698;2024-01-06T02:38:20;21.00;;;11.60;;
50309;SDS011;36207;51.850;21.698;2024-01-06T02:40:46;19.90;;;11.90;;
50309;SDS011;36207;51.850;21.698;2024-01-06T02:43:12;19.10;;;11.30;;
50309;SDS011;36207;51.850;21.698;2024-01-06T02:45:38;20.40;;;11.90;;
50309;SDS011;36207;51.850;21.698;2024-01-06T02:48:04;20.70;;;11.70;;
50309;SDS011;36207;51.850;21.698;2024-01-06T02:50:31;23.10;;;12.50;;
50309;SDS011;36207;51.850;21.698;2024-01-06T02:52:57;21.40;;;12.20;;
50309;SDS011;36207;51.850;21.698;2024-01-06T02:55:23;20.10;;;11.40;;
50309;SDS011;36207;51.850;21.698;2024-01-06T02:57:48;18.00;;;11.30;;
50309;SDS011;36207;51.850;21.698;2024-01-06T03:00:15;20.80;;;11.90;;
50309;SDS011;36207;51.850;21.698;2024-01-06T03:02:41;19.00;;;11.20;;
50309;SDS011;36207;51.850;21.698;2024-01-06T03:05:09;20.50;;;11.40;;
50309;SDS011;36207;51.850;21.698;2024-01-06T03:07:36;19.10;;;11.50;;
50309;SDS011;36207;51.850;21.698;2024-01-06T03:10:02;18.80;;;10.90;;
50309;SDS011;36207;51.850;21.698;2024-01-06T03:12:28;21.00;;;11.30;;
50309;SDS011;36207;51.850;21.698;2024-01-06T03:14:54;19.80;;;11.60;;
50309;SDS011;36207;51.850;21.698;2024-01-06T03:17:20;17.90;;;11.20;;
50309;SDS011;36207;51.850;21.698;2024-01-06T03:19:46;20.30;;;11.60;;
50309;SDS011;36207;51.850;21.698;2024-01-06T03:22:12;18.00;;;11.30;;
50309;SDS011;36207;51.850;21.698;2024-01-06T03:24:39;18.50;;;11.20;;
50309;SDS011;36207;51.850;21.698;2024-01-06T03:27:05;18.60;;;11.20;;
50309;SDS011;36207;51.850;21.698;2024-01-06T03:29:31;17.60;;;11.30;;
50309;SDS011;36207;51.850;21.698;2024-01-06T03:31:57;20.10;;;11.70;;
50309;SDS011;36207;51.850;21.698;2024-01-06T03:34:23;20.40;;;12.10;;
50309;SDS011;36207;51.850;21.698;2024-01-06T03:36:50;18.90;;;11.30;;
50309;SDS011;36207;51.850;21.698;2024-01-06T03:39:16;17.80;;;11.50;;
50309;SDS011;36207;51.850;21.698;2024-01-06T03:41:42;19.90;;;11.40;;
50309;SDS011;36207;51.850;21.698;2024-01-06T03:44:09;22.90;;;12.40;;
50309;SDS011;36207;51.850;21.698;2024-01-06T03:46:35;19.90;;;11.60;;
50309;SDS011;36207;51.850;21.698;2024-01-06T03:49:01;21.40;;;12.00;;
50309;SDS011;36207;51.850;21.698;2024-01-06T03:51:27;19.80;;;11.50;;
50309;SDS011;36207;51.850;21.698;2024-01-06T03:53:53;21.20;;;12.00;;
50309;SDS011;36207;51.850;21.698;2024-01-06T03:56:19;17.70;;;11.30;;
50309;SDS011;36207;51.850;21.698;2024-01-06T03:58:45;18.90;;;11.30;;
50309;SDS011;36207;51.850;21.698;2024-01-06T04:01:11;18.60;;;11.10;;
50309;SDS011;36207;51.850;21.698;2024-01-06T04:03:37;20.00;;;11.40;;
50309;SDS011;36207;51.850;21.698;2024-01-06T04:08:46;19.70;;;11.00;;
50309;SDS011;36207;51.850;21.698;2024-01-06T04:11:12;17.70;;;11.10;;
50309;SDS011;36207;51.850;21.698;2024-01-06T04:13:38;17.60;;;10.80;;
50309;SDS011;36207;51.850;21.698;2024-01-06T04:16:04;17.50;;;10.90;;
50309;SDS011;36207;51.850;21.698;2024-01-06T04:18:30;17.40;;;10.60;;
50309;SDS011;36207;51.850;21.698;2024-01-06T04:20:56;18.40;;;11.20;;
50309;SDS011;36207;51.850;21.698;2024-01-06T04:23:22;18.00;;;10.90;;
50309;SDS011;36207;51.850;21.698;2024-01-06T04:25:49;20.10;;;12.00;;
50309;SDS011;36207;51.850;21.698;2024-01-06T04:28:14;19.80;;;11.50;;
50309;SDS011;36207;51.850;21.698;2024-01-06T04:30:40;16.80;;;10.20;;
50309;SDS011;36207;51.850;21.698;2024-01-06T04:33:06;18.60;;;11.10;;
50309;SDS011;36207;51.850;21.698;2024-01-06T04:35:33;17.90;;;11.30;;
50309;SDS011;36207;51.850;21.698;2024-01-06T04:37:59;18.60;;;10.70;;
50309;SDS011;36207;51.850;21.698;2024-01-06T04:40:25;18.20;;;10.90;;
50309;SDS011;36207;51.850;21.698;2024-01-06T04:42:51;19.60;;;11.10;;
50309;SDS011;36207;51.850;21.698;2024-01-06T04:45:17;20.30;;;11.20;;
50309;SDS011;36207;51.850;21.698;2024-01-06T04:47:45;19.00;;;11.10;;
50309;SDS011;36207;51.850;21.698;2024-01-06T04:50:11;18.80;;;11.60;;
50309;SDS011;36207;51.850;21.698;2024-01-06T04:52:37;18.20;;;11.20;;
50309;SDS011;36207;51.850;21.698;2024-01-06T04:55:03;20.90;;;11.20;;
50309;SDS011;36207;51.850;21.698;2024-01-06T04:57:29;18.00;;;11.10;;
50309;SDS011;36207;51.850;21.698;2024-01-06T04:59:55;17.20;;;10.50;;
50309;SDS011;36207;51.850;21.698;2024-01-06T05:02:21;18.00;;;10.50;;
50309;SDS011;36207;51.850;21.698;2024-01-06T05:04:47;18.40;;;10.70;;
50309;SDS011;36207;51.850;21.698;2024-01-06T05:07:13;18.10;;;11.00;;
50309;SDS011;36207;51.850;21.698;2024-01-06T05:09:39;20.20;;;11.30;;
50309;SDS011;36207;51.850;21.698;2024-01-06T05:12:05;18.60;;;11.10;;
50309;SDS011;36207;51.850;21.698;2024-01-06T05:14:31;16.50;;;10.60;;
50309;SDS011;36207;51.850;21.698;2024-01-06T05:16:57;18.40;;;11.30;;
50309;SDS011;36207;51.850;21.698;2024-01-06T05:19:24;17.40;;;10.80;;
50309;SDS011;36207;51.850;21.698;2024-01-06T05:21:50;17.30;;;10.10;;
50309;SDS011;36207;51.850;21.698;2024-01-06T05:24:18;18.70;;;10.50;;
50309;SDS011;36207;51.850;21.698;2024-01-06T05:26:45;17.10;;;10.20;;
50309;SDS011;36207;51.850;21.698;2024-01-06T05:29:11;16.10;;;10.30;;
50309;SDS011;36207;51.850;21.698;2024-01-06T05:31:37;17.60;;;10.50;;
50309;SDS011;36207;51.850;21.698;2024-01-06T05:34:03;17.00;;;10.40;;
50309;SDS011;36207;51.850;21.698;2024-01-06T05:36:30;19.70;;;10.30;;
50309;SDS011;36207;51.850;21.698;2024-01-06T05:38:56;19.10;;;11.10;;
50309;SDS011;36207;51.850;21.698;2024-01-06T05:41:21;17.80;;;10.10;;
50309;SDS011;36207;51.850;21.698;2024-01-06T05:43:48;20.80;;;11.50;;
50309;SDS011;36207;51.850;21.698;2024-01-06T05:46:20;18.80;;;10.90;;
50309;SDS011;36207;51.850;21.698;2024-01-06T05:48:47;17.60;;;10.40;;
50309;SDS011;36207;51.850;21.698;2024-01-06T05:51:13;16.90;;;10.20;;
50309;SDS011;36207;51.850;21.698;2024-01-06T05:53:39;18.00;;;10.40;;
50309;SDS011;36207;51.850;21.698;2024-01-06T05:56:05;18.50;;;11.00;;
50309;SDS011;36207;51.850;21.698;2024-01-06T05:58:31;17.90;;;11.00;;
50309;SDS011;36207;51.850;21.698;2024-01-06T06:00:57;18.20;;;10.60;;
50309;SDS011;36207;51.850;21.698;2024-01-06T06:03:23;19.00;;;10.90;;
50309;SDS011;36207;51.850;21.698;2024-01-06T06:05:50;17.80;;;11.00;;
50309;SDS011;36207;51.850;21.698;2024-01-06T06:08:16;17.50;;;10.60;;
50309;SDS011;36207;51.850;21.698;2024-01-06T06:10:42;16.80;;;10.50;;
50309;SDS011;36207;51.850;21.698;2024-01-06T06:13:25;16.90;;;10.10;;
50309;SDS011;36207;51.850;21.698;2024-01-06T06:15:51;15.00;;;9.50;;
50309;SDS011;36207;51.850;21.698;2024-01-06T06:18:18;16.70;;;10.00;;
50309;SDS011;36207;51.850;21.698;2024-01-06T06:20:44;17.40;;;10.40;;
50309;SDS011;36207;51.850;21.698;2024-01-06T06:23:10;16.90;;;9.90;;
50309;SDS011;36207;51.850;21.698;2024-01-06T06:25:39;15.80;;;9.70;;
50309;SDS011;36207;51.850;21.698;2024-01-06T06:28:05;15.30;;;9.50;;
50309;SDS011;36207;51.850;21.698;2024-01-06T06:30:32;15.00;;;9.40;;
50309;SDS011;36207;51.850;21.698;2024-01-06T06:32:58;14.30;;;9.10;;
50309;SDS011;36207;51.850;21.698;2024-01-06T06:35:24;13.60;;;8.40;;
50309;SDS011;36207;51.850;21.698;2024-01-06T06:37:51;14.80;;;9.00;;
50309;SDS011;36207;51.850;21.698;2024-01-06T06:40:17;14.10;;;8.60;;
50309;SDS011;36207;51.850;21.698;2024-01-06T06:42:43;16.40;;;9.00;;
50309;SDS011;36207;51.850;21.698;2024-01-06T06:45:09;15.50;;;9.00;;
50309;SDS011;36207;51.850;21.698;2024-01-06T06:47:38;17.30;;;9.50;;
50309;SDS011;36207;51.850;21.698;2024-01-06T06:50:05;14.40;;;9.30;;
50309;SDS011;36207;51.850;21.698;2024-01-06T06:52:31;15.30;;;9.50;;
50309;SDS011;36207;51.850;21.698;2024-01-06T06:54:57;14.20;;;9.10;;
50309;SDS011;36207;51.850;21.698;2024-01-06T06:57:23;14.60;;;8.90;;
50309;SDS011;36207;51.850;21.698;2024-01-06T06:59:49;13.40;;;8.20;;
50309;SDS011;36207;51.850;21.698;2024-01-06T07:02:15;14.60;;;8.70;;
50309;SDS011;36207;51.850;21.698;2024-01-06T07:04:41;14.10;;;8.60;;
50309;SDS011;36207;51.850;21.698;2024-01-06T07:07:08;17.00;;;9.50;;
50309;SDS011;36207;51.850;21.698;2024-01-06T07:09:33;16.10;;;9.30;;
50309;SDS011;36207;51.850;21.698;2024-01-06T07:12:00;16.30;;;9.70;;
50309;SDS011;36207;51.850;21.698;2024-01-06T07:14:26;18.60;;;9.50;;
50309;SDS011;36207;51.850;21.698;2024-01-06T07:16:52;15.80;;;9.20;;
50309;SDS011;36207;51.850;21.698;2024-01-06T07:19:18;15.70;;;8.90;;
50309;SDS011;36207;51.850;21.698;2024-01-06T07:21:44;16.60;;;9.60;;
50309;SDS011;36207;51.850;21.698;2024-01-06T07:24:10;16.00;;;9.50;;
50309;SDS011;36207;51.850;21.698;2024-01-06T07:26:36;17.10;;;10.30;;
50309;SDS011;36207;51.850;21.698;2024-01-06T07:29:02;17.30;;;10.20;;
50309;SDS011;36207;51.850;21.698;2024-01-06T07:31:28;16.30;;;10.10;;
50309;SDS011;36207;51.850;21.698;2024-01-06T07:33:54;16.30;;;10.00;;
50309;SDS011;36207;51.850;21.698;2024-01-06T07:36:20;16.10;;;9.50;;
50309;SDS011;36207;51.850;21.698;2024-01-06T07:38:47;17.80;;;9.70;;
50309;SDS011;36207;51.850;21.698;2024-01-06T07:41:13;15.90;;;9.80;;
50309;SDS011;36207;51.850;21.698;2024-01-06T07:43:39;15.30;;;9.30;;
50309;SDS011;36207;51.850;21.698;2024-01-06T07:46:05;17.20;;;9.80;;
50309;SDS011;36207;51.850;21.698;2024-01-06T07:48:32;14.20;;;9.20;;
50309;SDS011;36207;51.850;21.698;2024-01-06T07:50:58;16.50;;;9.80;;
50309;SDS011;36207;51.850;21.698;2024-01-06T07:53:24;16.90;;;10.60;;
50309;SDS011;36207;51.850;21.698;2024-01-06T07:55:50;17.20;;;9.90;;
50309;SDS011;36207;51.850;21.698;2024-01-06T07:58:17;17.70;;;10.80;;
50309;SDS011;36207;51.850;21.698;2024-01-06T08:00:43;18.00;;;10.70;;
50309;SDS011;36207;51.850;21.698;2024-01-06T08:03:09;18.70;;;10.50;;
50309;SDS011;36207;51.850;21.698;2024-01-06T08:05:37;17.60;;;10.50;;
50309;SDS011;36207;51.850;21.698;2024-01-06T08:08:03;19.70;;;10.50;;
50309;SDS011;36207;51.850;21.698;2024-01-06T08:10:30;16.40;;;10.00;;
50309;SDS011;36207;51.850;21.698;2024-01-06T08:12:57;16.50;;;9.50;;
50309;SDS011;36207;51.850;21.698;2024-01-06T08:15:23;17.90;;;10.10;;
50309;SDS011;36207;51.850;21.698;2024-01-06T08:17:48;17.00;;;9.80;;
50309;SDS011;36207;51.850;21.698;2024-01-06T08:20:14;17.40;;;9.80;;
50309;SDS011;36207;51.850;21.698;2024-01-06T08:22:40;18.00;;;10.30;;
50309;SDS011;36207;51.850;21.698;2024-01-06T08:25:06;17.40;;;10.40;;
50309;SDS011;36207;51.850;21.698;2024-01-06T08:27:33;17.00;;;10.40;;
50309;SDS011;36207;51.850;21.698;2024-01-06T08:30:00;20.20;;;11.00;;
50309;SDS011;36207;51.850;21.698;2024-01-06T08:32:26;17.90;;;10.40;;
50309;SDS011;36207;51.850;21.698;2024-01-06T08:34:52;17.40;;;10.60;;
50309;SDS011;36207;51.850;21.698;2024-01-06T08:37:18;18.90;;;10.90;;
50309;SDS011;36207;51.850;21.698;2024-01-06T08:39:44;20.20;;;11.40;;
50309;SDS011;36207;51.850;21.698;2024-01-06T08:42:10;21.20;;;11.90;;
50309;SDS011;36207;51.850;21.698;2024-01-06T08:44:36;20.70;;;11.10;;
50309;SDS011;36207;51.850;21.698;2024-01-06T08:47:02;22.40;;;11.90;;
50309;SDS011;36207;51.850;21.698;2024-01-06T08:49:28;21.00;;;12.60;;
50309;SDS011;36207;51.850;21.698;2024-01-06T08:51:54;20.90;;;11.70;;
50309;SDS011;36207;51.850;21.698;2024-01-06T08:54:20;19.90;;;11.30;;
50309;SDS011;36207;51.850;21.698;2024-01-06T08:56:46;20.70;;;11.80;;
50309;SDS011;36207;51.850;21.698;2024-01-06T08:59:12;22.50;;;12.40;;
50309;SDS011;36207;51.850;21.698;2024-01-06T09:01:38;19.20;;;12.00;;
50309;SDS011;36207;51.850;21.698;2024-01-06T09:04:04;19.10;;;11.10;;
50309;SDS011;36207;51.850;21.698;2024-01-06T09:06:32;20.80;;;12.30;;
50309;SDS011;36207;51.850;21.698;2024-01-06T09:08:58;20.30;;;12.00;;
50309;SDS011;36207;51.850;21.698;2024-01-06T09:11:23;21.40;;;12.70;;
50309;SDS011;36207;51.850;21.698;2024-01-06T09:13:49;20.20;;;12.30;;
50309;SDS011;36207;51.850;21.698;2024-01-06T09:16:18;21.20;;;12.90;;
50309;SDS011;36207;51.850;21.698;2024-01-06T09:18:45;26.20;;;15.60;;
50309;SDS011;36207;51.850;21.698;2024-01-06T09:21:11;28.50;;;18.10;;
50309;SDS011;36207;51.850;21.698;2024-01-06T09:23:37;45.10;;;23.00;;
50309;SDS011;36207;51.850;21.698;2024-01-06T09:26:03;104.40;;;36.00;;
50309;SDS011;36207;51.850;21.698;2024-01-06T09:28:29;100.40;;;36.50;;
50309;SDS011;36207;51.850;21.698;2024-01-06T09:30:54;68.50;;;29.60;;
50309;SDS011;36207;51.850;21.698;2024-01-06T09:33:22;77.80;;;33.00;;
50309;SDS011;36207;51.850;21.698;2024-01-06T09:35:48;62.40;;;27.20;;
50309;SDS011;36207;51.850;21.698;2024-01-06T09:38:14;47.40;;;22.50;;
50309;SDS011;36207;51.850;21.698;2024-01-06T09:40:42;35.10;;;18.60;;
50309;SDS011;36207;51.850;21.698;2024-01-06T09:43:12;34.40;;;18.30;;
50309;SDS011;36207;51.850;21.698;2024-01-06T09:45:38;25.00;;;14.20;;
50309;SDS011;36207;51.850;21.698;2024-01-06T09:48:11;21.50;;;12.20;;
50309;SDS011;36207;51.850;21.698;2024-01-06T09:50:40;22.40;;;12.70;;
50309;SDS011;36207;51.850;21.698;2024-01-06T09:53:11;19.60;;;11.70;;
50309;SDS011;36207;51.850;21.698;2024-01-06T09:55:38;18.30;;;11.10;;
50309;SDS011;36207;51.850;21.698;2024-01-06T09:58:04;18.80;;;11.20;;
50309;SDS011;36207;51.850;21.698;2024-01-06T10:00:31;19.10;;;11.30;;
50309;SDS011;36207;51.850;21.698;2024-01-06T10:02:57;20.50;;;11.50;;
50309;SDS011;36207;51.850;21.698;2024-01-06T10:05:23;20.20;;;11.70;;
50309;SDS011;36207;51.850;21.698;2024-01-06T10:07:49;21.20;;;12.00;;
50309;SDS011;36207;51.850;21.698;2024-01-06T10:10:15;21.00;;;11.90;;
50309;SDS011;36207;51.850;21.698;2024-01-06T10:12:42;21.80;;;12.80;;
50309;SDS011;36207;51.850;21.698;2024-01-06T10:15:09;20.80;;;12.60;;
50309;SDS011;36207;51.850;21.698;2024-01-06T10:17:40;22.00;;;13.20;;
50309;SDS011;36207;51.850;21.698;2024-01-06T10:20:10;22.10;;;13.40;;
50309;SDS011;36207;51.850;21.698;2024-01-06T10:22:37;23.70;;;13.60;;
50309;SDS011;36207;51.850;21.698;2024-01-06T10:25:06;23.60;;;12.90;;
50309;SDS011;36207;51.850;21.698;2024-01-06T10:27:40;20.70;;;12.90;;
50309;SDS011;36207;51.850;21.698;2024-01-06T10:30:07;22.10;;;12.50;;
50309;SDS011;36207;51.850;21.698;2024-01-06T10:32:35;23.50;;;12.40;;
50309;SDS011;36207;51.850;21.698;2024-01-06T10:35:02;20.10;;;12.10;;
50309;SDS011;36207;51.850;21.698;2024-01-06T10:37:29;20.60;;;11.90;;
50309;SDS011;36207;51.850;21.698;2024-01-06T10:40:08;21.40;;;12.00;;
50309;SDS011;36207;51.850;21.698;2024-01-06T10:42:39;20.10;;;11.80;;
50309;SDS011;36207;51.850;21.698;2024-01-06T10:45:09;20.70;;;11.70;;
50309;SDS011;36207;51.850;21.698;2024-01-06T10:47:37;20.60;;;11.40;;
50309;SDS011;36207;51.850;21.698;2024-01-06T10:50:04;20.80;;;12.50;;
50309;SDS011;36207;51.850;21.698;2024-01-06T10:52:31;19.30;;;11.70;;
50309;SDS011;36207;51.850;21.698;2024-01-06T10:54:57;21.10;;;12.80;;
50309;SDS011;36207;51.850;21.698;2024-01-06T10:57:24;20.20;;;12.20;;
50309;SDS011;36207;51.850;21.698;2024-01-06T10:59:50;22.80;;;12.90;;
50309;SDS011;36207;51.850;21.698;2024-01-06T11:02:18;21.90;;;12.70;;
50309;SDS011;36207;51.850;21.698;2024-01-06T11:04:45;37.90;;;18.80;;
50309;SDS011;36207;51.850;21.698;2024-01-06T11:07:16;28.20;;;16.10;;
50309;SDS011;36207;51.850;21.698;2024-01-06T11:10:06;19.40;;;12.60;;
50309;SDS011;36207;51.850;21.698;2024-01-06T11:12:31;20.40;;;12.40;;
50309;SDS011;36207;51.850;21.698;2024-01-06T11:14:58;20.50;;;12.60;;
50309;SDS011;36207;51.850;21.698;2024-01-06T11:17:57;20.80;;;12.40;;
50309;SDS011;36207;51.850;21.698;2024-01-06T11:20:26;20.70;;;11.80;;
50309;SDS011;36207;51.850;21.698;2024-01-06T11:22:52;18.70;;;11.20;;
50309;SDS011;36207;51.850;21.698;2024-01-06T11:25:20;19.00;;;11.40;;
50309;SDS011;36207;51.850;21.698;2024-01-06T11:27:48;19.10;;;11.90;;
50309;SDS011;36207;51.850;21.698;2024-01-06T11:30:19;20.90;;;11.70;;
50309;SDS011;36207;51.850;21.698;2024-01-06T11:32:45;17.50;;;10.90;;
50309;SDS011;36207;51.850;21.698;2024-01-06T11:35:13;15.80;;;10.30;;
50309;SDS011;36207;51.850;21.698;2024-01-06T11:40:22;17.60;;;11.10;;
50309;SDS011;36207;51.850;21.698;2024-01-06T11:43:04;17.40;;;10.40;;
50309;SDS011;36207;51.850;21.698;2024-01-06T11:45:32;17.60;;;10.80;;
50309;SDS011;36207;51.850;21.698;2024-01-06T11:48:06;16.40;;;10.20;;
50309;SDS011;36207;51.850;21.698;2024-01-06T11:50:34;17.30;;;10.30;;
50309;SDS011;36207;51.850;21.698;2024-01-06T11:53:02;15.20;;;9.90;;
50309;SDS011;36207;51.850;21.698;2024-01-06T11:55:29;17.40;;;10.50;;
50309;SDS011;36207;51.850;21.698;2024-01-06T11:57:58;18.00;;;10.20;;
50309;SDS011;36207;51.850;21.698;2024-01-06T12:00:28;18.40;;;10.10;;
50309;SDS011;36207;51.850;21.698;2024-01-06T12:02:58;14.90;;;9.50;;
50309;SDS011;36207;51.850;21.698;2024-01-06T12:05:26;14.50;;;9.60;;
50309;SDS011;36207;51.850;21.698;2024-01-06T12:07:54;15.40;;;9.80;;
50309;SDS011;36207;51.850;21.698;2024-01-06T12:10:24;15.70;;;9.40;;
50309;SDS011;36207;51.850;21.698;2024-01-06T12:12:55;15.80;;;9.60;;
50309;SDS011;36207;51.850;21.698;2024-01-06T12:15:26;14.60;;;9.20;;
50309;SDS011;36207;51.850;21.698;2024-01-06T12:17:56;16.60;;;9.70;;
50309;SDS011;36207;51.850;21.698;2024-01-06T12:20:22;14.90;;;9.00;;
50309;SDS011;36207;51.850;21.698;2024-01-06T12:22:52;14.10;;;9.00;;
50309;SDS011;36207;51.850;21.698;2024-01-06T12:25:22;14.80;;;9.40;;
50309;SDS011;36207;51.850;21.698;2024-01-06T12:27:49;15.30;;;10.00;;
50309;SDS011;36207;51.850;21.698;2024-01-06T12:30:16;22.40;;;12.80;;
50309;SDS011;36207;51.850;21.698;2024-01-06T12:32:47;17.10;;;10.90;;
50309;SDS011;36207;51.850;21.698;2024-01-06T12:35:15;23.40;;;15.80;;
50309;SDS011;36207;51.850;21.698;2024-01-06T12:37:42;15.10;;;9.40;;
50309;SDS011;36207;51.850;21.698;2024-01-06T12:40:11;15.70;;;9.20;;
50309;SDS011;36207;51.850;21.698;2024-01-06T12:42:38;15.50;;;9.60;;
50309;SDS011;36207;51.850;21.698;2024-01-06T12:45:05;17.00;;;9.60;;
50309;SDS011;36207;51.850;21.698;2024-01-06T12:47:32;18.10;;;9.90;;
50309;SDS011;36207;51.850;21.698;2024-01-06T12:49:59;18.00;;;10.00;;
50309;SDS011;36207;51.850;21.698;2024-01-06T12:52:25;18.20;;;10.40;;
50309;SDS011;36207;51.850;21.698;2024-01-06T12:54:51;15.40;;;10.10;;
50309;SDS011;36207;51.850;21.698;2024-01-06T12:57:18;17.60;;;10.00;;
50309;SDS011;36207;51.850;21.698;2024-01-06T12:59:44;14.00;;;9.00;;
50309;SDS011;36207;51.850;21.698;2024-01-06T13:02:10;15.00;;;9.80;;
50309;SDS011;36207;51.850;21.698;2024-01-06T13:04:36;21.20;;;14.10;;
50309;SDS011;36207;51.850;21.698;2024-01-06T13:07:02;16.10;;;10.10;;
50309;SDS011;36207;51.850;21.698;2024-01-06T13:09:28;15.80;;;10.30;;
50309;SDS011;36207;51.850;21.698;2024-01-06T13:11:54;16.60;;;10.40;;
50309;SDS011;36207;51.850;21.698;2024-01-06T13:14:28;14.90;;;9.90;;
50309;SDS011;36207;51.850;21.698;2024-01-06T13:16:55;22.10;;;13.40;;
50309;SDS011;36207;51.850;21.698;2024-01-06T13:19:21;15.10;;;9.60;;
50309;SDS011;36207;51.850;21.698;2024-01-06T13:21:47;15.40;;;9.40;;
50309;SDS011;36207;51.850;21.698;2024-01-06T13:24:13;14.80;;;9.00;;
50309;SDS011;36207;51.850;21.698;2024-01-06T13:26:39;22.30;;;14.30;;
50309;SDS011;36207;51.850;21.698;2024-01-06T13:29:05;19.20;;;12.40;;
50309;SDS011;36207;51.850;21.698;2024-01-06T13:31:31;15.50;;;10.10;;
50309;SDS011;36207;51.850;21.698;2024-01-06T13:33:58;16.50;;;10.40;;
50309;SDS011;36207;51.850;21.698;2024-01-06T13:36:24;17.10;;;9.90;;
50309;SDS011;36207;51.850;21.698;2024-01-06T13:38:50;60.50;;;39.20;;
50309;SDS011;36207;51.850;21.698;2024-01-06T13:41:16;15.10;;;9.10;;
50309;SDS011;36207;51.850;21.698;2024-01-06T13:43:42;13.60;;;8.70;;
50309;SDS011;36207;51.850;21.698;2024-01-06T13:46:10;15.30;;;8.20;;
50309;SDS011;36207;51.850;21.698;2024-01-06T13:48:36;15.70;;;8.70;;
50309;SDS011;36207;51.850;21.698;2024-01-06T13:51:02;14.40;;;8.50;;
50309;SDS011;36207;51.850;21.698;2024-01-06T13:53:29;13.50;;;8.20;;
50309;SDS011;36207;51.850;21.698;2024-01-06T13:55:55;19.10;;;9.20;;
50309;SDS011;36207;51.850;21.698;2024-01-06T13:58:21;15.00;;;9.20;;
50309;SDS011;36207;51.850;21.698;2024-01-06T14:00:47;15.90;;;8.90;;
50309;SDS011;36207;51.850;21.698;2024-01-06T14:03:14;15.30;;;9.30;;
50309;SDS011;36207;51.850;21.698;2024-01-06T14:05:40;19.90;;;10.00;;
50309;SDS011;36207;51.850;21.698;2024-01-06T14:08:06;19.30;;;10.30;;
50309;SDS011;36207;51.850;21.698;2024-01-06T14:10:32;15.70;;;9.30;;
50309;SDS011;36207;51.850;21.698;2024-01-06T14:12:58;15.20;;;9.00;;
50309;SDS011;36207;51.850;21.698;2024-01-06T14:15:24;14.70;;;8.80;;